sensor_id;sensor_type;location;lat;lon;timestamp;P1;durP1;ratioP1;P2;durP2;ratioP2
12703;SDS011;6416;52.182;7.650;2023-02-08T00:01:06;7.53;;;6.73;;
12703;SDS011;6416;52.182;7.650;2023-02-08T00:03:36;7.47;;;6.60;;
12703;SDS011;6416;52.182;7.650;2023-02-08T00:06:02;7.73;;;6.50;;
12703;SDS011;6416;52.182;7.650;2023-02-08T00:08:28;7.20;;;6.40;;
12703;SDS011;6416;52.182;7.650;2023-02-08T00:10:54;7.03;;;6.30;;
12703;SDS011;6416;52.182;7.650;2023-02-08T00:13:19;7.80;;;7.00;;
12703;SDS011;6416;52.182;7.650;2023-02-08T00:15:45;7.27;;;6.50;;
12703;SDS011;6416;52.182;7.650;2023-02-08T00:18:11;6.97;;;6.23;;
12703;SDS011;6416;52.182;7.650;2023-02-08T00:20:37;8.13;;;6.20;;
12703;SDS011;6416;52.182;7.650;2023-02-08T00:23:04;7.53;;;6.73;;
12703;SDS011;6416;52.182;7.650;2023-02-08T00:25:30;6.90;;;6.10;;
12703;SDS011;6416;52.182;7.650;2023-02-08T00:27:57;7.00;;;5.73;;
12703;SDS011;6416;52.182;7.650;2023-02-08T00:30:22;7.30;;;6.43;;
12703;SDS011;6416;52.182;7.650;2023-02-08T00:32:48;8.67;;;6.90;;
12703;SDS011;6416;52.182;7.650;2023-02-08T00:35:13;9.30;;;6.97;;
12703;SDS011;6416;52.182;7.650;2023-02-08T00:37:39;8.03;;;6.80;;
12703;SDS011;6416;52.182;7.650;2023-02-08T00:40:04;8.47;;;7.20;;
12703;SDS011;6416;52.182;7.650;2023-02-08T00:42:30;8.43;;;6.70;;
12703;SDS011;6416;52.182;7.650;2023-02-08T00:44:56;9.23;;;6.80;;
12703;SDS011;6416;52.182;7.650;2023-02-08T00:47:22;8.53;;;6.70;;
12703;SDS011;6416;52.182;7.650;2023-02-08T00:49:47;7.97;;;7.17;;
12703;SDS011;6416;52.182;7.650;2023-02-08T00:52:13;9.47;;;7.03;;
12703;SDS011;6416;52.182;7.650;2023-02-08T00:54:38;9.37;;;6.90;;
12703;SDS011;6416;52.182;7.650;2023-02-08T00:57:04;8.03;;;6.97;;
12703;SDS011;6416;52.182;7.650;2023-02-08T00:59:29;7.87;;;7.07;;
12703;SDS011;6416;52.182;7.650;2023-02-08T01:01:55;8.00;;;6.77;;
12703;SDS011;6416;52.182;7.650;2023-02-08T01:04:20;8.50;;;7.07;;
12703;SDS011;6416;52.182;7.650;2023-02-08T01:06:46;9.13;;;7.60;;
12703;SDS011;6416;52.182;7.650;2023-02-08T01:09:11;9.67;;;7.30;;
12703;SDS011;6416;52.182;7.650;2023-02-08T01:11:37;8.73;;;7.33;;
12703;SDS011;6416;52.182;7.650;2023-02-08T01:14:02;8.00;;;7.17;;
12703;SDS011;6416;52.182;7.650;2023-02-08T01:16:29;10.67;;;7.53;;
12703;SDS011;6416;52.182;7.650;2023-02-08T01:18:56;11.10;;;7.53;;
12703;SDS011;6416;52.182;7.650;2023-02-08T01:21:24;9.10;;;7.37;;
12703;SDS011;6416;52.182;7.650;2023-02-08T01:23:54;9.33;;;7.60;;
12703;SDS011;6416;52.182;7.650;2023-02-08T01:26:21;10.73;;;8.50;;
12703;SDS011;6416;52.182;7.650;2023-02-08T01:28:47;10.23;;;7.60;;
12703;SDS011;6416;52.182;7.650;2023-02-08T01:31:15;10.70;;;8.33;;
12703;SDS011;6416;52.182;7.650;2023-02-08T01:33:42;12.47;;;9.10;;
12703;SDS011;6416;52.182;7.650;2023-02-08T01:36:08;13.97;;;8.77;;
12703;SDS011;6416;52.182;7.650;2023-02-08T01:38:34;12.77;;;9.23;;
12703;SDS011;6416;52.182;7.650;2023-02-08T01:41:01;13.30;;;9.53;;
12703;SDS011;6416;52.182;7.650;2023-02-08T01:43:28;10.60;;;8.40;;
12703;SDS011;6416;52.182;7.650;2023-02-08T01:45:55;12.10;;;9.10;;
12703;SDS011;6416;52.182;7.650;2023-02-08T01:48:28;10.80;;;8.23;;
12703;SDS011;6416;52.182;7.650;2023-02-08T01:51:04;11.13;;;8.73;;
12703;SDS011;6416;52.182;7.650;2023-02-08T01:53:39;12.83;;;8.57;;
12703;SDS011;6416;52.182;7.650;2023-02-08T01:56:08;13.03;;;9.07;;
12703;SDS011;6416;52.182;7.650;2023-02-08T01:58:38;12.87;;;9.43;;
12703;SDS011;6416;52.182;7.650;2023-02-08T02:01:08;13.93;;;9.83;;
12703;SDS011;6416;52.182;7.650;2023-02-08T02:03:35;12.90;;;9.10;;
12703;SDS011;6416;52.182;7.650;2023-02-08T02:06:02;12.73;;;9.27;;
12703;SDS011;6416;52.182;7.650;2023-02-08T02:08:33;12.93;;;8.93;;
12703;SDS011;6416;52.182;7.650;2023-02-08T02:10:58;13.77;;;9.70;;
12703;SDS011;6416;52.182;7.650;2023-02-08T02:13:24;12.30;;;9.27;;
12703;SDS011;6416;52.182;7.650;2023-02-08T02:15:51;12.70;;;8.53;;
12703;SDS011;6416;52.182;7.650;2023-02-08T02:18:25;13.63;;;9.13;;
12703;SDS011;6416;52.182;7.650;2023-02-08T02:23:29;13.37;;;8.97;;
12703;SDS011;6416;52.182;7.650;2023-02-08T02:32:04;12.13;;;9.77;;
12703;SDS011;6416;52.182;7.650;2023-02-08T02:37:58;13.10;;;9.60;;
12703;SDS011;6416;52.182;7.650;2023-02-08T02:40:35;16.63;;;9.93;;
12703;SDS011;6416;52.182;7.650;2023-02-08T02:46:23;15.47;;;9.83;;
12703;SDS011;6416;52.182;7.650;2023-02-08T02:51:24;16.07;;;9.63;;
12703;SDS011;6416;52.182;7.650;2023-02-08T02:53:54;13.00;;;9.70;;
12703;SDS011;6416;52.182;7.650;2023-02-08T02:56:31;14.10;;;9.60;;
12703;SDS011;6416;52.182;7.650;2023-02-08T02:59:01;16.43;;;10.03;;
12703;SDS011;6416;52.182;7.650;2023-02-08T03:01:30;14.37;;;9.37;;
12703;SDS011;6416;52.182;7.650;2023-02-08T03:03:56;12.87;;;8.97;;
12703;SDS011;6416;52.182;7.650;2023-02-08T03:12:43;11.27;;;8.70;;
12703;SDS011;6416;52.182;7.650;2023-02-08T03:20:54;17.60;;;9.43;;
12703;SDS011;6416;52.182;7.650;2023-02-08T03:23:27;15.63;;;9.77;;
12703;SDS011;6416;52.182;7.650;2023-02-08T03:26:29;13.70;;;9.80;;
12703;SDS011;6416;52.182;7.650;2023-02-08T03:31:49;15.17;;;9.83;;
12703;SDS011;6416;52.182;7.650;2023-02-08T03:34:22;13.17;;;9.47;;
12703;SDS011;6416;52.182;7.650;2023-02-08T03:36:52;12.90;;;9.10;;
12703;SDS011;6416;52.182;7.650;2023-02-08T03:39:22;11.50;;;8.57;;
12703;SDS011;6416;52.182;7.650;2023-02-08T03:41:52;12.37;;;9.03;;
12703;SDS011;6416;52.182;7.650;2023-02-08T03:44:23;12.47;;;9.07;;
12703;SDS011;6416;52.182;7.650;2023-02-08T03:46:58;15.33;;;9.50;;
12703;SDS011;6416;52.182;7.650;2023-02-08T03:49:31;15.50;;;9.57;;
12703;SDS011;6416;52.182;7.650;2023-02-08T03:52:00;16.07;;;11.13;;
12703;SDS011;6416;52.182;7.650;2023-02-08T03:54:29;14.70;;;9.87;;
12703;SDS011;6416;52.182;7.650;2023-02-08T03:59:41;16.13;;;9.83;;
12703;SDS011;6416;52.182;7.650;2023-02-08T04:02:12;16.93;;;10.47;;
12703;SDS011;6416;52.182;7.650;2023-02-08T04:04:44;16.77;;;9.93;;
12703;SDS011;6416;52.182;7.650;2023-02-08T04:07:12;15.47;;;10.67;;
12703;SDS011;6416;52.182;7.650;2023-02-08T04:09:38;15.23;;;10.80;;
12703;SDS011;6416;52.182;7.650;2023-02-08T04:12:03;14.97;;;10.43;;
12703;SDS011;6416;52.182;7.650;2023-02-08T04:14:29;15.97;;;10.60;;
12703;SDS011;6416;52.182;7.650;2023-02-08T04:16:55;12.77;;;9.93;;
12703;SDS011;6416;52.182;7.650;2023-02-08T04:19:20;13.30;;;9.60;;
12703;SDS011;6416;52.182;7.650;2023-02-08T04:21:46;14.33;;;9.70;;
12703;SDS011;6416;52.182;7.650;2023-02-08T04:24:11;13.50;;;9.13;;
12703;SDS011;6416;52.182;7.650;2023-02-08T04:26:37;15.53;;;10.00;;
12703;SDS011;6416;52.182;7.650;2023-02-08T04:29:02;13.67;;;9.03;;
12703;SDS011;6416;52.182;7.650;2023-02-08T04:31:28;15.53;;;10.23;;
12703;SDS011;6416;52.182;7.650;2023-02-08T04:33:53;15.50;;;9.90;;
12703;SDS011;6416;52.182;7.650;2023-02-08T04:36:19;13.90;;;9.50;;
12703;SDS011;6416;52.182;7.650;2023-02-08T04:38:44;13.13;;;8.80;;
12703;SDS011;6416;52.182;7.650;2023-02-08T04:41:10;13.20;;;10.07;;
12703;SDS011;6416;52.182;7.650;2023-02-08T04:43:36;13.90;;;9.73;;
12703;SDS011;6416;52.182;7.650;2023-02-08T04:46:01;13.03;;;9.10;;
12703;SDS011;6416;52.182;7.650;2023-02-08T04:48:27;15.43;;;10.20;;
12703;SDS011;6416;52.182;7.650;2023-02-08T04:50:56;16.13;;;10.63;;
12703;SDS011;6416;52.182;7.650;2023-02-08T04:53:23;13.80;;;9.70;;
12703;SDS011;6416;52.182;7.650;2023-02-08T04:55:49;12.60;;;9.17;;
12703;SDS011;6416;52.182;7.650;2023-02-08T04:58:14;11.53;;;8.77;;
12703;SDS011;6416;52.182;7.650;2023-02-08T05:00:40;13.63;;;8.50;;
12703;SDS011;6416;52.182;7.650;2023-02-08T05:03:05;11.03;;;8.57;;
12703;SDS011;6416;52.182;7.650;2023-02-08T05:05:31;12.33;;;9.40;;
12703;SDS011;6416;52.182;7.650;2023-02-08T05:07:56;13.10;;;9.17;;
12703;SDS011;6416;52.182;7.650;2023-02-08T05:10:22;12.33;;;9.03;;
12703;SDS011;6416;52.182;7.650;2023-02-08T05:12:48;12.60;;;9.03;;
12703;SDS011;6416;52.182;7.650;2023-02-08T05:15:13;11.87;;;8.87;;
12703;SDS011;6416;52.182;7.650;2023-02-08T05:17:39;12.23;;;9.70;;
12703;SDS011;6416;52.182;7.650;2023-02-08T05:20:04;15.63;;;10.60;;
12703;SDS011;6416;52.182;7.650;2023-02-08T05:22:30;12.40;;;9.00;;
12703;SDS011;6416;52.182;7.650;2023-02-08T05:24:56;12.00;;;8.90;;
12703;SDS011;6416;52.182;7.650;2023-02-08T05:27:22;12.80;;;8.90;;
12703;SDS011;6416;52.182;7.650;2023-02-08T05:29:48;13.67;;;9.73;;
12703;SDS011;6416;52.182;7.650;2023-02-08T05:32:13;16.63;;;9.97;;
12703;SDS011;6416;52.182;7.650;2023-02-08T05:34:39;15.67;;;9.83;;
12703;SDS011;6416;52.182;7.650;2023-02-08T05:37:04;13.37;;;9.50;;
12703;SDS011;6416;52.182;7.650;2023-02-08T05:39:30;14.70;;;10.37;;
12703;SDS011;6416;52.182;7.650;2023-02-08T05:41:55;27.60;;;19.30;;
12703;SDS011;6416;52.182;7.650;2023-02-08T05:44:20;16.43;;;11.87;;
12703;SDS011;6416;52.182;7.650;2023-02-08T05:46:46;16.00;;;10.70;;
12703;SDS011;6416;52.182;7.650;2023-02-08T05:49:12;15.87;;;10.73;;
12703;SDS011;6416;52.182;7.650;2023-02-08T05:51:37;14.03;;;10.10;;
12703;SDS011;6416;52.182;7.650;2023-02-08T05:54:02;15.27;;;9.33;;
12703;SDS011;6416;52.182;7.650;2023-02-08T05:56:28;12.27;;;8.70;;
12703;SDS011;6416;52.182;7.650;2023-02-08T05:58:53;16.73;;;9.63;;
12703;SDS011;6416;52.182;7.650;2023-02-08T06:01:19;13.53;;;9.30;;
12703;SDS011;6416;52.182;7.650;2023-02-08T06:03:45;13.00;;;9.47;;
12703;SDS011;6416;52.182;7.650;2023-02-08T06:06:10;11.97;;;9.37;;
12703;SDS011;6416;52.182;7.650;2023-02-08T06:08:36;12.50;;;9.00;;
12703;SDS011;6416;52.182;7.650;2023-02-08T06:11:02;14.43;;;10.57;;
12703;SDS011;6416;52.182;7.650;2023-02-08T06:13:28;13.67;;;9.13;;
12703;SDS011;6416;52.182;7.650;2023-02-08T06:15:54;14.10;;;9.17;;
12703;SDS011;6416;52.182;7.650;2023-02-08T06:18:19;16.33;;;8.97;;
12703;SDS011;6416;52.182;7.650;2023-02-08T06:20:45;14.67;;;9.10;;
12703;SDS011;6416;52.182;7.650;2023-02-08T06:23:10;13.93;;;9.73;;
12703;SDS011;6416;52.182;7.650;2023-02-08T06:25:36;11.83;;;8.93;;
12703;SDS011;6416;52.182;7.650;2023-02-08T06:28:01;11.70;;;8.47;;
12703;SDS011;6416;52.182;7.650;2023-02-08T06:30:27;12.20;;;8.83;;
12703;SDS011;6416;52.182;7.650;2023-02-08T06:32:56;12.27;;;8.87;;
12703;SDS011;6416;52.182;7.650;2023-02-08T06:35:21;12.93;;;8.53;;
12703;SDS011;6416;52.182;7.650;2023-02-08T06:37:47;12.47;;;8.80;;
12703;SDS011;6416;52.182;7.650;2023-02-08T06:40:12;11.23;;;8.37;;
12703;SDS011;6416;52.182;7.650;2023-02-08T06:42:38;11.57;;;8.57;;
12703;SDS011;6416;52.182;7.650;2023-02-08T06:45:03;14.00;;;9.27;;
12703;SDS011;6416;52.182;7.650;2023-02-08T06:47:29;13.63;;;9.73;;
12703;SDS011;6416;52.182;7.650;2023-02-08T06:49:55;14.93;;;10.23;;
12703;SDS011;6416;52.182;7.650;2023-02-08T06:52:20;15.20;;;9.53;;
12703;SDS011;6416;52.182;7.650;2023-02-08T06:54:46;12.73;;;8.73;;
12703;SDS011;6416;52.182;7.650;2023-02-08T06:57:11;11.20;;;8.47;;
12703;SDS011;6416;52.182;7.650;2023-02-08T06:59:37;12.73;;;9.10;;
12703;SDS011;6416;52.182;7.650;2023-02-08T07:02:03;14.20;;;9.10;;
12703;SDS011;6416;52.182;7.650;2023-02-08T07:04:29;16.23;;;9.83;;
12703;SDS011;6416;52.182;7.650;2023-02-08T07:06:55;14.20;;;10.93;;
12703;SDS011;6416;52.182;7.650;2023-02-08T07:09:20;19.10;;;11.80;;
12703;SDS011;6416;52.182;7.650;2023-02-08T07:11:46;12.73;;;9.70;;
12703;SDS011;6416;52.182;7.650;2023-02-08T07:14:12;14.00;;;9.07;;
12703;SDS011;6416;52.182;7.650;2023-02-08T07:16:39;14.63;;;9.57;;
12703;SDS011;6416;52.182;7.650;2023-02-08T07:19:04;13.07;;;8.77;;
12703;SDS011;6416;52.182;7.650;2023-02-08T07:21:30;12.73;;;9.07;;
12703;SDS011;6416;52.182;7.650;2023-02-08T07:23:55;18.10;;;10.17;;
12703;SDS011;6416;52.182;7.650;2023-02-08T07:26:21;13.73;;;9.33;;
12703;SDS011;6416;52.182;7.650;2023-02-08T07:28:46;11.60;;;8.70;;
12703;SDS011;6416;52.182;7.650;2023-02-08T07:31:13;10.87;;;7.53;;
12703;SDS011;6416;52.182;7.650;2023-02-08T07:33:40;12.47;;;8.27;;
12703;SDS011;6416;52.182;7.650;2023-02-08T07:36:05;17.63;;;8.50;;
12703;SDS011;6416;52.182;7.650;2023-02-08T07:38:32;11.33;;;9.23;;
12703;SDS011;6416;52.182;7.650;2023-02-08T07:41:02;14.63;;;9.37;;
12703;SDS011;6416;52.182;7.650;2023-02-08T07:43:29;11.97;;;8.37;;
12703;SDS011;6416;52.182;7.650;2023-02-08T07:45:55;12.40;;;8.27;;
12703;SDS011;6416;52.182;7.650;2023-02-08T07:48:21;18.10;;;8.23;;
12703;SDS011;6416;52.182;7.650;2023-02-08T07:50:46;11.93;;;8.53;;
12703;SDS011;6416;52.182;7.650;2023-02-08T07:53:12;13.67;;;8.20;;
12703;SDS011;6416;52.182;7.650;2023-02-08T07:55:38;10.80;;;8.00;;
12703;SDS011;6416;52.182;7.650;2023-02-08T07:58:03;9.20;;;7.43;;
12703;SDS011;6416;52.182;7.650;2023-02-08T08:00:29;11.20;;;8.27;;
12703;SDS011;6416;52.182;7.650;2023-02-08T08:02:54;11.17;;;7.93;;
12703;SDS011;6416;52.182;7.650;2023-02-08T08:05:20;10.30;;;7.43;;
12703;SDS011;6416;52.182;7.650;2023-02-08T08:07:45;13.07;;;7.97;;
12703;SDS011;6416;52.182;7.650;2023-02-08T08:10:11;13.30;;;8.97;;
12703;SDS011;6416;52.182;7.650;2023-02-08T08:12:36;10.30;;;8.53;;
12703;SDS011;6416;52.182;7.650;2023-02-08T08:15:02;14.83;;;10.60;;
12703;SDS011;6416;52.182;7.650;2023-02-08T08:17:27;14.30;;;10.20;;
12703;SDS011;6416;52.182;7.650;2023-02-08T08:19:53;13.63;;;9.23;;
12703;SDS011;6416;52.182;7.650;2023-02-08T08:22:18;13.47;;;8.90;;
12703;SDS011;6416;52.182;7.650;2023-02-08T08:24:44;13.03;;;8.70;;
12703;SDS011;6416;52.182;7.650;2023-02-08T08:27:09;14.00;;;9.33;;
12703;SDS011;6416;52.182;7.650;2023-02-08T08:29:35;10.97;;;8.43;;
12703;SDS011;6416;52.182;7.650;2023-02-08T08:32:02;9.30;;;7.77;;
12703;SDS011;6416;52.182;7.650;2023-02-08T08:34:28;9.87;;;7.87;;
12703;SDS011;6416;52.182;7.650;2023-02-08T08:36:54;8.90;;;7.37;;
12703;SDS011;6416;52.182;7.650;2023-02-08T08:39:23;7.07;;;6.23;;
12703;SDS011;6416;52.182;7.650;2023-02-08T08:41:49;7.00;;;6.10;;
12703;SDS011;6416;52.182;7.650;2023-02-08T08:44:14;6.90;;;6.23;;
12703;SDS011;6416;52.182;7.650;2023-02-08T08:46:40;7.67;;;6.20;;
12703;SDS011;6416;52.182;7.650;2023-02-08T08:49:06;8.20;;;5.97;;
12703;SDS011;6416;52.182;7.650;2023-02-08T08:51:31;7.23;;;6.20;;
12703;SDS011;6416;52.182;7.650;2023-02-08T08:53:57;6.60;;;5.70;;
12703;SDS011;6416;52.182;7.650;2023-02-08T08:56:22;8.63;;;6.83;;
12703;SDS011;6416;52.182;7.650;2023-02-08T08:58:48;6.70;;;6.00;;
12703;SDS011;6416;52.182;7.650;2023-02-08T09:01:13;6.80;;;6.13;;
12703;SDS011;6416;52.182;7.650;2023-02-08T09:03:38;8.07;;;6.50;;
12703;SDS011;6416;52.182;7.650;2023-02-08T09:06:04;9.13;;;6.00;;
12703;SDS011;6416;52.182;7.650;2023-02-08T09:08:30;7.27;;;6.57;;
12703;SDS011;6416;52.182;7.650;2023-02-08T09:10:55;7.47;;;6.77;;
12703;SDS011;6416;52.182;7.650;2023-02-08T09:13:20;6.80;;;6.20;;
12703;SDS011;6416;52.182;7.650;2023-02-08T09:15:47;7.80;;;6.63;;
12703;SDS011;6416;52.182;7.650;2023-02-08T09:18:13;7.10;;;6.40;;
12703;SDS011;6416;52.182;7.650;2023-02-08T09:20:38;7.30;;;6.60;;
12703;SDS011;6416;52.182;7.650;2023-02-08T09:23:04;8.07;;;7.27;;
12703;SDS011;6416;52.182;7.650;2023-02-08T09:25:30;8.13;;;6.90;;
12703;SDS011;6416;52.182;7.650;2023-02-08T09:27:55;7.80;;;7.00;;
12703;SDS011;6416;52.182;7.650;2023-02-08T09:30:21;7.27;;;6.63;;
12703;SDS011;6416;52.182;7.650;2023-02-08T09:32:46;7.73;;;7.03;;
12703;SDS011;6416;52.182;7.650;2023-02-08T09:35:12;8.10;;;7.30;;
12703;SDS011;6416;52.182;7.650;2023-02-08T09:37:37;8.40;;;7.23;;
12703;SDS011;6416;52.182;7.650;2023-02-08T09:40:03;9.93;;;7.30;;
12703;SDS011;6416;52.182;7.650;2023-02-08T09:47:32;6.70;;;5.33;;
12703;SDS011;6416;52.182;7.650;2023-02-08T09:50:05;6.73;;;6.13;;
12703;SDS011;6416;52.182;7.650;2023-02-08T09:52:40;6.87;;;6.17;;
12703;SDS011;6416;52.182;7.650;2023-02-08T09:55:16;6.38;;;5.78;;
12703;SDS011;6416;52.182;7.650;2023-02-08T09:57:43;6.15;;;5.55;;
12703;SDS011;6416;52.182;7.650;2023-02-08T10:00:15;6.70;;;6.10;;
12703;SDS011;6416;52.182;7.650;2023-02-08T10:02:45;7.28;;;6.05;;
12703;SDS011;6416;52.182;7.650;2023-02-08T10:05:13;5.80;;;5.30;;
12703;SDS011;6416;52.182;7.650;2023-02-08T10:07:42;6.07;;;5.47;;
12703;SDS011;6416;52.182;7.650;2023-02-08T10:10:13;5.95;;;5.30;;
12703;SDS011;6416;52.182;7.650;2023-02-08T10:18:07;6.13;;;5.32;;
12703;SDS011;6416;52.182;7.650;2023-02-08T10:21:02;6.38;;;5.78;;
12703;SDS011;6416;52.182;7.650;2023-02-08T10:26:18;6.13;;;5.25;;
12703;SDS011;6416;52.182;7.650;2023-02-08T10:37:17;5.35;;;4.85;;
12703;SDS011;6416;52.182;7.650;2023-02-08T10:39:44;5.63;;;5.13;;
12703;SDS011;6416;52.182;7.650;2023-02-08T10:42:14;5.55;;;5.05;;
12703;SDS011;6416;52.182;7.650;2023-02-08T10:50:10;5.18;;;4.68;;
12703;SDS011;6416;52.182;7.650;2023-02-08T10:52:55;4.72;;;4.32;;
12703;SDS011;6416;52.182;7.650;2023-02-08T10:55:21;4.90;;;4.50;;
12703;SDS011;6416;52.182;7.650;2023-02-08T10:57:47;5.60;;;5.07;;
12703;SDS011;6416;52.182;7.650;2023-02-08T11:00:23;4.65;;;4.25;;
12703;SDS011;6416;52.182;7.650;2023-02-08T11:02:51;4.75;;;4.35;;
12703;SDS011;6416;52.182;7.650;2023-02-08T11:07:42;4.82;;;4.43;;
12703;SDS011;6416;52.182;7.650;2023-02-08T11:10:21;4.68;;;4.28;;
12703;SDS011;6416;52.182;7.650;2023-02-08T11:13:31;5.32;;;4.82;;
12703;SDS011;6416;52.182;7.650;2023-02-08T11:15:38;4.43;;;4.03;;
12703;SDS011;6416;52.182;7.650;2023-02-08T11:20:52;4.03;;;3.72;;
12703;SDS011;6416;52.182;7.650;2023-02-08T11:23:22;4.55;;;4.15;;
12703;SDS011;6416;52.182;7.650;2023-02-08T11:32:23;4.18;;;3.83;;
12703;SDS011;6416;52.182;7.650;2023-02-08T11:34:40;4.22;;;3.83;;
12703;SDS011;6416;52.182;7.650;2023-02-08T11:37:12;4.35;;;3.75;;
12703;SDS011;6416;52.182;7.650;2023-02-08T11:40:17;4.18;;;3.85;;
12703;SDS011;6416;52.182;7.650;2023-02-08T11:42:40;4.07;;;3.75;;
12703;SDS011;6416;52.182;7.650;2023-02-08T11:45:06;6.47;;;4.20;;
12703;SDS011;6416;52.182;7.650;2023-02-08T11:47:45;4.00;;;3.70;;
12703;SDS011;6416;52.182;7.650;2023-02-08T11:50:20;3.72;;;3.42;;
12703;SDS011;6416;52.182;7.650;2023-02-08T11:53:06;4.43;;;3.80;;
12703;SDS011;6416;52.182;7.650;2023-02-08T11:55:43;4.78;;;3.58;;
12703;SDS011;6416;52.182;7.650;2023-02-08T12:00:37;5.88;;;4.45;;
12703;SDS011;6416;52.182;7.650;2023-02-08T12:03:04;4.05;;;3.40;;
12703;SDS011;6416;52.182;7.650;2023-02-08T12:05:43;4.00;;;3.70;;
12703;SDS011;6416;52.182;7.650;2023-02-08T12:11:07;4.20;;;3.80;;
12703;SDS011;6416;52.182;7.650;2023-02-08T12:22:24;3.65;;;3.33;;
12703;SDS011;6416;52.182;7.650;2023-02-08T12:30:44;5.78;;;3.92;;
12703;SDS011;6416;52.182;7.650;2023-02-08T12:33:27;4.32;;;3.92;;
12703;SDS011;6416;52.182;7.650;2023-02-08T12:45:11;3.55;;;3.25;;
12703;SDS011;6416;52.182;7.650;2023-02-08T12:47:27;3.05;;;2.85;;
12703;SDS011;6416;52.182;7.650;2023-02-08T12:55:51;3.42;;;3.13;;
12703;SDS011;6416;52.182;7.650;2023-02-08T13:00:57;3.45;;;3.13;;
12703;SDS011;6416;52.182;7.650;2023-02-08T13:03:50;2.90;;;2.70;;
12703;SDS011;6416;52.182;7.650;2023-02-08T13:06:47;3.00;;;2.75;;
12703;SDS011;6416;52.182;7.650;2023-02-08T13:09:19;3.45;;;2.90;;
12703;SDS011;6416;52.182;7.650;2023-02-08T13:12:07;8.17;;;4.07;;
12703;SDS011;6416;52.182;7.650;2023-02-08T13:14:39;3.30;;;3.00;;
12703;SDS011;6416;52.182;7.650;2023-02-08T13:17:19;3.30;;;3.00;;
12703;SDS011;6416;52.182;7.650;2023-02-08T13:22:42;5.43;;;3.28;;
12703;SDS011;6416;52.182;7.650;2023-02-08T13:25:14;2.92;;;2.72;;
12703;SDS011;6416;52.182;7.650;2023-02-08T13:27:44;2.80;;;2.60;;
12703;SDS011;6416;52.182;7.650;2023-02-08T13:30:19;4.65;;;2.70;;
12703;SDS011;6416;52.182;7.650;2023-02-08T13:32:46;2.95;;;2.55;;
12703;SDS011;6416;52.182;7.650;2023-02-08T13:37:58;4.05;;;2.65;;
12703;SDS011;6416;52.182;7.650;2023-02-08T13:40:28;2.67;;;2.47;;
12703;SDS011;6416;52.182;7.650;2023-02-08T13:43:06;3.17;;;2.88;;
12703;SDS011;6416;52.182;7.650;2023-02-08T13:45:49;3.05;;;2.65;;
12703;SDS011;6416;52.182;7.650;2023-02-08T13:48:17;2.97;;;2.78;;
12703;SDS011;6416;52.182;7.650;2023-02-08T13:50:47;2.88;;;2.67;;
12703;SDS011;6416;52.182;7.650;2023-02-08T13:56:11;3.40;;;2.60;;
12703;SDS011;6416;52.182;7.650;2023-02-08T14:03:40;4.68;;;2.80;;
12703;SDS011;6416;52.182;7.650;2023-02-08T14:06:24;2.97;;;2.78;;
12703;SDS011;6416;52.182;7.650;2023-02-08T14:12:53;3.25;;;2.67;;
12703;SDS011;6416;52.182;7.650;2023-02-08T14:15:05;3.00;;;2.70;;
12703;SDS011;6416;52.182;7.650;2023-02-08T14:17:41;3.50;;;2.70;;
12703;SDS011;6416;52.182;7.650;2023-02-08T14:20:15;2.75;;;2.40;;
12703;SDS011;6416;52.182;7.650;2023-02-08T14:23:21;2.85;;;2.55;;
12703;SDS011;6416;52.182;7.650;2023-02-08T14:25:49;3.83;;;3.28;;
12703;SDS011;6416;52.182;7.650;2023-02-08T14:30:55;6.22;;;3.75;;
12703;SDS011;6416;52.182;7.650;2023-02-08T14:33:32;3.30;;;3.00;;
12703;SDS011;6416;52.182;7.650;2023-02-08T14:36:01;4.23;;;2.73;;
12703;SDS011;6416;52.182;7.650;2023-02-08T14:41:11;4.13;;;3.10;;
12703;SDS011;6416;52.182;7.650;2023-02-08T14:47:02;3.13;;;2.83;;
12703;SDS011;6416;52.182;7.650;2023-02-08T14:49:41;4.33;;;3.40;;
12703;SDS011;6416;52.182;7.650;2023-02-08T14:52:12;3.97;;;3.57;;
12703;SDS011;6416;52.182;7.650;2023-02-08T14:54:52;3.70;;;3.40;;
12703;SDS011;6416;52.182;7.650;2023-02-08T14:57:28;3.57;;;3.27;;
12703;SDS011;6416;52.182;7.650;2023-02-08T14:59:56;3.90;;;3.10;;
12703;SDS011;6416;52.182;7.650;2023-02-08T15:02:24;5.23;;;3.33;;
12703;SDS011;6416;52.182;7.650;2023-02-08T15:04:51;3.40;;;3.10;;
12703;SDS011;6416;52.182;7.650;2023-02-08T15:10:15;4.50;;;3.07;;
12703;SDS011;6416;52.182;7.650;2023-02-08T15:12:46;2.70;;;2.50;;
12703;SDS011;6416;52.182;7.650;2023-02-08T15:17:53;3.20;;;2.90;;
12703;SDS011;6416;52.182;7.650;2023-02-08T15:20:21;3.57;;;3.17;;
12703;SDS011;6416;52.182;7.650;2023-02-08T15:22:55;4.17;;;3.43;;
12703;SDS011;6416;52.182;7.650;2023-02-08T15:25:31;4.17;;;3.30;;
12703;SDS011;6416;52.182;7.650;2023-02-08T15:27:59;3.30;;;3.00;;
12703;SDS011;6416;52.182;7.650;2023-02-08T15:30:40;3.60;;;2.90;;
12703;SDS011;6416;52.182;7.650;2023-02-08T15:33:12;5.27;;;3.37;;
12703;SDS011;6416;52.182;7.650;2023-02-08T15:35:39;9.47;;;3.90;;
12703;SDS011;6416;52.182;7.650;2023-02-08T15:38:14;4.00;;;3.60;;
12703;SDS011;6416;52.182;7.650;2023-02-08T15:40:43;5.13;;;3.40;;
12703;SDS011;6416;52.182;7.650;2023-02-08T15:43:28;5.40;;;3.90;;
12703;SDS011;6416;52.182;7.650;2023-02-08T15:45:57;3.60;;;3.20;;
12703;SDS011;6416;52.182;7.650;2023-02-08T15:48:24;3.70;;;3.40;;
12703;SDS011;6416;52.182;7.650;2023-02-08T15:50:51;5.07;;;3.83;;
12703;SDS011;6416;52.182;7.650;2023-02-08T15:53:18;4.17;;;3.77;;
12703;SDS011;6416;52.182;7.650;2023-02-08T15:55:54;3.97;;;3.20;;
12703;SDS011;6416;52.182;7.650;2023-02-08T15:58:44;6.57;;;3.83;;
12703;SDS011;6416;52.182;7.650;2023-02-08T16:01:15;11.07;;;3.87;;
12703;SDS011;6416;52.182;7.650;2023-02-08T16:03:45;5.93;;;3.53;;
12703;SDS011;6416;52.182;7.650;2023-02-08T16:06:19;7.67;;;3.63;;
12703;SDS011;6416;52.182;7.650;2023-02-08T16:08:53;8.07;;;3.33;;
12703;SDS011;6416;52.182;7.650;2023-02-08T16:11:31;4.97;;;3.53;;
12703;SDS011;6416;52.182;7.650;2023-02-08T16:14:00;4.23;;;3.37;;
12703;SDS011;6416;52.182;7.650;2023-02-08T16:19:00;9.37;;;3.77;;
12703;SDS011;6416;52.182;7.650;2023-02-08T16:21:34;4.73;;;3.40;;
12703;SDS011;6416;52.182;7.650;2023-02-08T16:24:06;9.70;;;4.47;;
12703;SDS011;6416;52.182;7.650;2023-02-08T16:29:26;8.33;;;3.90;;
12703;SDS011;6416;52.182;7.650;2023-02-08T16:32:40;6.13;;;3.43;;
12703;SDS011;6416;52.182;7.650;2023-02-08T16:34:57;6.80;;;3.73;;
12703;SDS011;6416;52.182;7.650;2023-02-08T16:37:30;4.20;;;3.80;;
12703;SDS011;6416;52.182;7.650;2023-02-08T16:43:19;8.10;;;3.53;;
12703;SDS011;6416;52.182;7.650;2023-02-08T16:45:44;4.90;;;4.20;;
12703;SDS011;6416;52.182;7.650;2023-02-08T16:48:26;7.33;;;4.17;;
12703;SDS011;6416;52.182;7.650;2023-02-08T16:50:56;8.80;;;3.93;;
12703;SDS011;6416;52.182;7.650;2023-02-08T16:53:23;16.33;;;4.80;;
12703;SDS011;6416;52.182;7.650;2023-02-08T16:55:49;7.83;;;4.97;;
12703;SDS011;6416;52.182;7.650;2023-02-08T16:58:15;7.67;;;4.83;;
12703;SDS011;6416;52.182;7.650;2023-02-08T17:00:40;9.57;;;4.63;;
12703;SDS011;6416;52.182;7.650;2023-02-08T17:03:06;9.77;;;4.67;;
12703;SDS011;6416;52.182;7.650;2023-02-08T17:05:35;10.43;;;4.47;;
12703;SDS011;6416;52.182;7.650;2023-02-08T17:08:03;6.10;;;4.30;;
12703;SDS011;6416;52.182;7.650;2023-02-08T17:10:30;5.57;;;4.20;;
12703;SDS011;6416;52.182;7.650;2023-02-08T17:12:56;9.63;;;4.30;;
12703;SDS011;6416;52.182;7.650;2023-02-08T17:15:23;6.33;;;4.40;;
12703;SDS011;6416;52.182;7.650;2023-02-08T17:17:49;4.97;;;3.97;;
12703;SDS011;6416;52.182;7.650;2023-02-08T17:20:17;7.33;;;5.13;;
12703;SDS011;6416;52.182;7.650;2023-02-08T17:22:48;6.80;;;4.63;;
12703;SDS011;6416;52.182;7.650;2023-02-08T17:25:15;6.30;;;4.50;;
12703;SDS011;6416;52.182;7.650;2023-02-08T17:27:41;8.73;;;4.80;;
12703;SDS011;6416;52.182;7.650;2023-02-08T17:30:10;7.20;;;4.77;;
12703;SDS011;6416;52.182;7.650;2023-02-08T17:32:43;8.30;;;4.80;;
12703;SDS011;6416;52.182;7.650;2023-02-08T17:35:08;9.73;;;4.70;;
12703;SDS011;6416;52.182;7.650;2023-02-08T17:37:34;5.57;;;4.40;;